Time;durP1;ratioP1;P1;durP2;ratioP2;P2;SDS_P1;SDS_P2;PMS_P1;PMS_P2;Temp;Humidity;BMP_temperature;BMP_pressure;BME280_temperature;BME280_humidity;BME280_pressure;Samples;Min_cycle;Max_cycle;Signal;HPM_P1;HPM_P2
2023/04/06 00:00:59;;;;;;;;;;;3.30;69.20;;;;;;5029203;28;19913;-83
2023/04/06 00:03:24;;;;;;;;;;;3.10;70.30;;;;;;5031938;28;19921;-84
2023/04/06 00:05:50;;;;;;;;;;;3.20;70.60;;;;;;5035496;28;20309;-84
2023/04/06 00:08:16;;;;;;;;;;;3.10;71.20;;;;;;5052411;28;19901;-83
2023/04/06 00:10:41;;;;;;;;;;;3.10;70.80;;;;;;5040065;28;19921;-84
2023/04/06 00:13:07;;;;;;;;;;;3.20;71.10;;;;;;5039973;28;20007;-84
2023/04/06 00:15:33;;;;;;;;;;;3.10;70.70;;;;;;5036018;28;19921;-84
2023/04/06 00:17:59;;;;;;;;;;;3.20;70.80;;;;;;5037413;28;19983;-84
2023/04/06 00:20:25;;;;;;;;;;;3.20;70.40;;;;;;5045120;28;19917;-83
2023/04/06 00:22:50;;;;;;;;;;;3.20;70.20;;;;;;5045051;28;19963;-84
2023/04/06 00:25:16;;;;;;;;;;;3.20;70.30;;;;;;5038211;28;19913;-85
2023/04/06 00:27:41;;;;;;;;;;;3.10;69.40;;;;;;5038075;28;19924;-84
2023/04/06 00:30:07;;;;;;;;;;;3.20;69.80;;;;;;5041112;28;19972;-84
2023/04/06 00:32:33;;;;;;;;;;;3.00;70.20;;;;;;5037190;28;19921;-85
2023/04/06 00:34:59;;;;;;;;;;;3.00;71.00;;;;;;5035861;28;19925;-85
2023/04/06 00:37:24;;;;;;;;;;;2.90;71.30;;;;;;5039523;28;19967;-85
2023/04/06 00:39:51;;;;;;;;;;;2.90;71.70;;;;;;5030587;28;19913;-83
2023/04/06 00:42:18;;;;;;;;;;;2.90;71.30;;;;;;5032901;28;19914;-84
2023/04/06 00:44:43;;;;;;;;;;;2.80;71.80;;;;;;5032151;28;19917;-84
2023/04/06 00:47:09;;;;;;;;;;;2.80;71.60;;;;;;5032100;28;20047;-84
2023/04/06 00:49:34;;;;;;;;;;;2.90;71.60;;;;;;5032086;28;19967;-84
2023/04/06 00:52:01;;;;;;;;;;;2.90;71.50;;;;;;5032458;28;19925;-84
2023/04/06 00:54:26;;;;;;;;;;;2.80;71.60;;;;;;5033153;28;19940;-82
2023/04/06 00:56:52;;;;;;;;;;;2.90;71.70;;;;;;5034138;28;19913;-82
2023/04/06 00:59:18;;;;;;;;;;;2.90;71.80;;;;;;5034568;28;21610;-84
2023/04/06 01:01:43;;;;;;;;;;;2.80;72.20;;;;;;5034968;28;20330;-85
2023/04/06 01:04:09;;;;;;;;;;;2.70;72.40;;;;;;5035373;28;19966;-84
2023/04/06 01:06:34;;;;;;;;;;;2.80;72.70;;;;;;5032564;28;19944;-84
2023/04/06 01:09:00;;;;;;;;;;;2.80;73.20;;;;;;5037536;28;19917;-84
2023/04/06 01:11:26;;;;;;;;;;;2.80;72.80;;;;;;5042975;28;19917;-83
2023/04/06 01:13:52;;;;;;;;;;;2.70;72.90;;;;;;5048975;28;19925;-84
2023/04/06 01:16:17;;;;;;;;;;;2.80;72.50;;;;;;5031555;28;19920;-84
2023/04/06 01:18:43;;;;;;;;;;;2.80;72.80;;;;;;5035326;28;20370;-83
2023/04/06 01:21:10;;;;;;;;;;;2.90;72.60;;;;;;5037031;28;19928;-85
2023/04/06 01:23:35;;;;;;;;;;;3.00;72.10;;;;;;5034902;28;20375;-84
2023/04/06 01:26:00;;;;;;;;;;;2.90;72.00;;;;;;5033485;28;19924;-83
2023/04/06 01:28:26;;;;;;;;;;;3.00;71.80;;;;;;5053967;22;19936;-84
2023/04/06 01:30:51;;;;;;;;;;;3.10;71.40;;;;;;5034372;28;19929;-81
2023/04/06 01:33:17;;;;;;;;;;;3.10;71.30;;;;;;5036233;28;19919;-83
2023/04/06 01:35:42;;;;;;;;;;;3.10;71.20;;;;;;5050008;28;19917;-83
2023/04/06 01:38:08;;;;;;;;;;;3.10;71.20;;;;;;5035571;28;20297;-83
2023/04/06 01:40:33;;;;;;;;;;;3.10;71.70;;;;;;5048802;28;19935;-82
2023/04/06 01:42:59;;;;;;;;;;;3.10;71.20;;;;;;5042735;28;19924;-84
2023/04/06 01:45:25;;;;;;;;;;;3.20;70.60;;;;;;5039306;28;19913;-83
2023/04/06 01:47:50;;;;;;;;;;;3.20;70.70;;;;;;5039402;28;19913;-83
2023/04/06 01:50:15;;;;;;;;;;;3.20;70.60;;;;;;5026713;28;19983;-81
2023/04/06 01:52:41;;;;;;;;;;;3.20;70.40;;;;;;5034525;28;19913;-83
2023/04/06 01:55:06;;;;;;;;;;;3.10;70.70;;;;;;5049122;28;19913;-84
2023/04/06 01:57:32;;;;;;;;;;;3.20;70.60;;;;;;5053890;28;20032;-83
2023/04/06 01:59:57;;;;;;;;;;;3.10;70.40;;;;;;5040692;28;19913;-84
2023/04/06 02:02:23;;;;;;;;;;;3.10;70.50;;;;;;5044426;28;20032;-84
2023/04/06 02:04:48;;;;;;;;;;;3.20;70.00;;;;;;5040906;28;20500;-84
2023/04/06 02:07:14;;;;;;;;;;;3.20;68.90;;;;;;5030669;28;20454;-84
2023/04/06 02:09:39;;;;;;;;;;;3.20;68.80;;;;;;5040523;28;19920;-82
2023/04/06 02:12:05;;;;;;;;;;;3.30;68.10;;;;;;5052176;28;19941;-83
2023/04/06 02:14:32;;;;;;;;;;;3.20;67.90;;;;;;5049571;28;20178;-82
2023/04/06 02:16:58;;;;;;;;;;;3.20;68.60;;;;;;5041093;28;20425;-84
2023/04/06 02:19:23;;;;;;;;;;;3.20;68.10;;;;;;5039883;28;19916;-84
2023/04/06 02:21:49;;;;;;;;;;;3.30;67.60;;;;;;5034940;28;19960;-83
2023/04/06 02:24:14;;;;;;;;;;;3.40;67.10;;;;;;5040976;28;20705;-83
2023/04/06 02:26:40;;;;;;;;;;;3.40;67.40;;;;;;5034972;28;19914;-84
2023/04/06 02:32:43;;;;;;;;;;;3.40;67.20;;;;;;5031047;28;20448;-84
2023/04/06 02:35:09;;;;;;;;;;;3.40;66.40;;;;;;5025706;28;20059;-83
2023/04/06 02:37:34;;;;;;;;;;;3.40;66.80;;;;;;5031892;28;19947;-84
2023/04/06 02:40:00;;;;;;;;;;;3.40;66.10;;;;;;5037475;28;19932;-83
2023/04/06 02:42:25;;;;;;;;;;;3.40;66.10;;;;;;5050412;28;19909;-84
2023/04/06 02:44:50;;;;;;;;;;;3.40;66.80;;;;;;5034240;28;20378;-84
2023/04/06 02:47:16;;;;;;;;;;;3.50;67.40;;;;;;5033222;28;20425;-84
2023/04/06 02:49:41;;;;;;;;;;;3.50;66.80;;;;;;5033584;28;19916;-85
2023/04/06 02:52:07;;;;;;;;;;;3.40;67.00;;;;;;5032805;28;20058;-84
2023/04/06 02:54:32;;;;;;;;;;;3.30;67.60;;;;;;5037341;28;20377;-84
2023/04/06 02:56:58;;;;;;;;;;;3.40;67.50;;;;;;5034441;28;19921;-84
2023/04/06 02:59:23;;;;;;;;;;;3.40;68.00;;;;;;5031994;28;19928;-84
2023/04/06 03:01:48;;;;;;;;;;;3.40;68.40;;;;;;5038513;28;20301;-83
2023/04/06 03:04:14;;;;;;;;;;;3.30;67.80;;;;;;5038125;28;20554;-83
2023/04/06 03:06:40;;;;;;;;;;;3.40;66.90;;;;;;5030106;28;19920;-84
2023/04/06 03:09:06;;;;;;;;;;;3.30;67.30;;;;;;5034645;28;19939;-84
2023/04/06 03:11:31;;;;;;;;;;;3.30;67.20;;;;;;5031702;28;19959;-84
2023/04/06 03:13:57;;;;;;;;;;;3.20;67.60;;;;;;5032107;28;19921;-83
2023/04/06 03:16:22;;;;;;;;;;;3.20;67.70;;;;;;5035304;28;19929;-84
2023/04/06 03:18:47;;;;;;;;;;;3.30;67.90;;;;;;5032536;28;19921;-84
2023/04/06 03:21:15;;;;;;;;;;;3.30;67.90;;;;;;5030615;28;19924;-84
2023/04/06 03:23:40;;;;;;;;;;;3.20;67.70;;;;;;5033029;28;20298;-84
2023/04/06 03:26:06;;;;;;;;;;;3.30;68.90;;;;;;5035090;28;19913;-84
2023/04/06 03:28:31;;;;;;;;;;;3.30;68.60;;;;;;5053564;28;19917;-83
2023/04/06 03:30:57;;;;;;;;;;;3.30;67.90;;;;;;5032825;28;19917;-84
2023/04/06 03:33:22;;;;;;;;;;;3.30;68.30;;;;;;5030721;28;19909;-84
2023/04/06 03:35:47;;;;;;;;;;;3.30;67.80;;;;;;5033426;28;19913;-82
2023/04/06 03:38:13;;;;;;;;;;;3.20;67.50;;;;;;5034024;28;20003;-84
2023/04/06 03:40:38;;;;;;;;;;;3.20;67.70;;;;;;5053157;28;19916;-84
2023/04/06 03:43:04;;;;;;;;;;;3.20;67.40;;;;;;5039880;28;19913;-83
2023/04/06 03:45:29;;;;;;;;;;;3.30;68.50;;;;;;5046703;28;19920;-84
2023/04/06 03:47:55;;;;;;;;;;;3.20;68.00;;;;;;5052367;28;19947;-82
2023/04/06 03:50:20;;;;;;;;;;;3.20;67.70;;;;;;5045996;28;20379;-84
2023/04/06 03:52:46;;;;;;;;;;;3.20;67.70;;;;;;5044236;28;19978;-85
2023/04/06 03:55:11;;;;;;;;;;;3.20;67.20;;;;;;5040518;28;19925;-84
2023/04/06 03:57:37;;;;;;;;;;;3.20;68.30;;;;;;5043188;28;19909;-84
2023/04/06 04:00:03;;;;;;;;;;;3.20;67.20;;;;;;5041159;28;19917;-84
2023/04/06 04:02:28;;;;;;;;;;;3.30;67.00;;;;;;5036730;28;19936;-84
2023/04/06 04:04:54;;;;;;;;;;;3.30;66.50;;;;;;5040979;28;20362;-84
2023/04/06 04:07:19;;;;;;;;;;;3.30;66.80;;;;;;5029796;28;19913;-84
2023/04/06 04:09:45;;;;;;;;;;;3.30;66.50;;;;;;5035998;28;19921;-83
2023/04/06 04:12:10;;;;;;;;;;;3.30;67.20;;;;;;5026289;28;19913;-84
2023/04/06 04:14:35;;;;;;;;;;;3.30;66.70;;;;;;5031856;28;19935;-84
2023/04/06 04:17:01;;;;;;;;;;;3.30;67.30;;;;;;5030098;28;19996;-84
2023/04/06 04:19:26;;;;;;;;;;;3.20;67.10;;;;;;5033281;28;19913;-84
2023/04/06 04:21:52;;;;;;;;;;;3.20;67.10;;;;;;5035931;28;19963;-83
2023/04/06 04:24:17;;;;;;;;;;;3.30;67.30;;;;;;5032539;28;19913;-84
2023/04/06 04:26:43;;;;;;;;;;;3.30;66.60;;;;;;5030310;28;19917;-84
2023/04/06 04:29:09;;;;;;;;;;;3.20;66.30;;;;;;5034608;28;20016;-84
2023/04/06 04:31:35;;;;;;;;;;;3.20;66.40;;;;;;5032679;28;20004;-82
2023/04/06 04:34:01;;;;;;;;;;;3.20;66.30;;;;;;5028016;28;20040;-80
2023/04/06 04:36:26;;;;;;;;;;;3.20;66.60;;;;;;5026769;28;20310;-80
2023/04/06 04:38:52;;;;;;;;;;;3.20;66.80;;;;;;5029252;28;20067;-83
2023/04/06 04:41:18;;;;;;;;;;;3.20;66.10;;;;;;5026229;28;20717;-82
2023/04/06 04:43:43;;;;;;;;;;;3.20;67.00;;;;;;5041863;28;19916;-81
2023/04/06 04:46:09;;;;;;;;;;;3.20;67.60;;;;;;5033942;28;19920;-83
2023/04/06 04:48:34;;;;;;;;;;;3.10;66.90;;;;;;5036044;28;19937;-83
2023/04/06 04:51:00;;;;;;;;;;;3.10;66.70;;;;;;5022820;28;19969;-82
2023/04/06 04:53:25;;;;;;;;;;;3.10;67.10;;;;;;5027280;28;20010;-84
2023/04/06 04:55:51;;;;;;;;;;;3.20;67.10;;;;;;5038463;28;19967;-82
2023/04/06 04:58:18;;;;;;;;;;;3.20;67.70;;;;;;5036948;28;19920;-85
2023/04/06 05:00:51;;;;;;;;;;;3.20;67.90;;;;;;5048032;28;19960;-85
2023/04/06 05:03:19;;;;;;;;;;;3.20;67.60;;;;;;5038794;28;20280;-81
2023/04/06 05:05:45;;;;;;;;;;;3.10;67.70;;;;;;5027021;28;19913;-82
2023/04/06 05:08:10;;;;;;;;;;;3.20;68.30;;;;;;5027177;28;19920;-83
2023/04/06 05:10:35;;;;;;;;;;;3.20;67.80;;;;;;5030267;28;19913;-82
2023/04/06 05:13:01;;;;;;;;;;;3.30;68.10;;;;;;5029635;28;19917;-83
2023/04/06 05:15:26;;;;;;;;;;;3.20;68.10;;;;;;5033311;28;19974;-83
2023/04/06 05:17:52;;;;;;;;;;;3.30;67.90;;;;;;5030143;28;19921;-83
2023/04/06 05:20:17;;;;;;;;;;;3.20;66.60;;;;;;5032535;28;19917;-83
2023/04/06 05:22:43;;;;;;;;;;;3.30;66.50;;;;;;5025336;28;20386;-83
2023/04/06 05:25:08;;;;;;;;;;;3.40;67.70;;;;;;5024762;28;19916;-83
2023/04/06 05:27:34;;;;;;;;;;;3.40;67.40;;;;;;5032170;28;19928;-83
2023/04/06 05:30:00;;;;;;;;;;;3.40;66.30;;;;;;5028423;28;19991;-84
2023/04/06 05:32:26;;;;;;;;;;;3.50;65.70;;;;;;5033398;28;19921;-83
2023/04/06 05:34:52;;;;;;;;;;;3.50;65.90;;;;;;5031008;28;19948;-84
2023/04/06 05:37:17;;;;;;;;;;;3.50;64.80;;;;;;5026742;28;19920;-84
2023/04/06 05:39:46;;;;;;;;;;;3.60;65.20;;;;;;5029669;28;20017;-83
2023/04/06 05:42:11;;;;;;;;;;;3.60;63.90;;;;;;5032173;28;19910;-84
2023/04/06 05:44:37;;;;;;;;;;;3.70;63.60;;;;;;5030835;28;19927;-84
2023/04/06 05:47:03;;;;;;;;;;;3.80;63.30;;;;;;5029874;28;20451;-90
2023/04/06 05:49:28;;;;;;;;;;;3.90;63.30;;;;;;5027510;28;19974;-84
2023/04/06 05:51:54;;;;;;;;;;;3.80;62.80;;;;;;5026845;28;19917;-85
2023/04/06 05:54:20;;;;;;;;;;;3.90;62.80;;;;;;5023265;28;20012;-85
2023/04/06 05:56:48;;;;;;;;;;;4.00;62.10;;;;;;5035314;28;19920;-85
2023/04/06 05:59:16;;;;;;;;;;;4.10;61.20;;;;;;5032449;28;19913;-84
2023/04/06 06:01:41;;;;;;;;;;;4.10;61.80;;;;;;5029346;28;20019;-85
2023/04/06 06:04:07;;;;;;;;;;;4.30;60.50;;;;;;5024910;28;19954;-84
2023/04/06 06:06:32;;;;;;;;;;;4.30;60.80;;;;;;5025064;28;19917;-86
2023/04/06 06:09:07;;;;;;;;;;;4.30;60.00;;;;;;5031176;28;19916;-84
2023/04/06 06:11:55;;;;;;;;;;;4.30;60.40;;;;;;5038563;28;19917;-85
2023/04/06 06:14:21;;;;;;;;;;;4.50;60.30;;;;;;5013028;28;19921;-84
2023/04/06 06:16:50;;;;;;;;;;;4.60;59.90;;;;;;5030427;28;19913;-83
2023/04/06 06:19:43;;;;;;;;;;;4.70;59.50;;;;;;5021996;28;20378;-85
2023/04/06 06:22:40;;;;;;;;;;;4.80;58.60;;;;;;5029220;28;19917;-85
2023/04/06 06:28:41;;;;;;;;;;;4.90;58.30;;;;;;5043974;28;20002;-83
2023/04/06 06:31:36;;;;;;;;;;;5.00;58.10;;;;;;5034465;28;19913;-84
2023/04/06 06:34:27;;;;;;;;;;;5.20;57.50;;;;;;5038235;28;19928;-84
2023/04/06 06:39:55;;;;;;;;;;;5.50;56.60;;;;;;5035308;28;19921;-84
2023/04/06 06:42:35;;;;;;;;;;;5.40;56.00;;;;;;5035337;28;20028;-85
2023/04/06 06:45:42;;;;;;;;;;;5.30;56.80;;;;;;5034419;28;19909;-84
2023/04/06 06:48:10;;;;;;;;;;;5.50;56.00;;;;;;5011184;28;19924;-84
2023/04/06 06:54:01;;;;;;;;;;;5.90;55.00;;;;;;5029731;28;19917;-85
2023/04/06 06:56:37;;;;;;;;;;;5.80;56.10;;;;;;5024795;28;19978;-85
2023/04/06 06:59:14;;;;;;;;;;;5.90;55.10;;;;;;5042046;28;19943;-83
2023/04/06 07:01:45;;;;;;;;;;;6.10;54.20;;;;;;5030651;28;20003;-83
2023/04/06 07:04:49;;;;;;;;;;;6.10;54.50;;;;;;5033834;28;19913;-83
2023/04/06 07:07:30;;;;;;;;;;;6.10;54.10;;;;;;4973119;28;20434;-85
2023/04/06 07:10:10;;;;;;;;;;;6.30;53.30;;;;;;5027961;28;19913;-84
2023/04/06 07:13:06;;;;;;;;;;;;;;;;;;;;;
2023/04/06 07:15:37;;;;;;;;;;;6.50;52.60;;;;;;5033534;28;19960;-84
2023/04/06 07:18:26;;;;;;;;;;;6.60;52.00;;;;;;5048048;28;19976;-84
2023/04/06 07:20:59;;;;;;;;;;;6.80;51.90;;;;;;5030687;28;20279;-85
2023/04/06 07:26:29;;;;;;;;;;;6.90;51.80;;;;;;5033355;28;19913;-84
2023/04/06 07:29:00;;;;;;;;;;;6.90;51.30;;;;;;5053508;28;19922;-84
2023/04/06 07:31:38;;;;;;;;;;;6.90;52.30;;;;;;5048546;28;19923;-85
2023/04/06 07:34:26;;;;;;;;;;;7.00;51.50;;;;;;5041810;28;19925;-85
2023/04/06 07:37:16;;;;;;;;;;;7.00;51.50;;;;;;5024558;28;19967;-84
2023/04/06 07:40:04;;;;;;;;;;;;;;;;;;;;;
2023/04/06 07:45:39;;;;;;;;;;;7.10;51.40;;;;;;5036532;28;20397;-85
2023/04/06 07:52:03;;;;;;;;;;;7.20;50.90;;;;;;5025264;28;19922;-84
2023/04/06 07:55:21;;;;;;;;;;;7.30;50.70;;;;;;5030928;28;19921;-84
2023/04/06 08:01:09;;;;;;;;;;;7.50;51.40;;;;;;5029031;28;20119;-85
2023/04/06 08:03:40;;;;;;;;;;;7.60;51.50;;;;;;5024077;28;19919;-85
2023/04/06 08:08:54;;;;;;;;;;;7.80;51.10;;;;;;5056477;23;20691;-84
2023/04/06 08:11:20;;;;;;;;;;;8.00;50.80;;;;;;5040881;28;20443;-84
2023/04/06 08:13:45;;;;;;;;;;;8.00;50.20;;;;;;5035858;28;19917;-84
2023/04/06 08:16:11;;;;;;;;;;;8.10;50.70;;;;;;5038429;28;19966;-84
2023/04/06 08:18:36;;;;;;;;;;;8.30;50.40;;;;;;5029603;28;19952;-83
2023/04/06 08:21:02;;;;;;;;;;;8.20;49.70;;;;;;5028418;28;20421;-83
2023/04/06 08:23:27;;;;;;;;;;;8.30;49.70;;;;;;5027568;28;20242;-87
2023/04/06 08:25:54;;;;;;;;;;;8.60;49.20;;;;;;5019762;28;19917;-84
2023/04/06 08:28:20;;;;;;;;;;;8.50;49.90;;;;;;5042862;28;19916;-81
2023/04/06 08:30:45;;;;;;;;;;;8.60;49.80;;;;;;5041891;28;20310;-83
2023/04/06 08:33:11;;;;;;;;;;;8.60;49.30;;;;;;5042428;28;19913;-83
2023/04/06 08:35:36;;;;;;;;;;;8.70;49.70;;;;;;5034850;28;19925;-83
2023/04/06 08:38:02;;;;;;;;;;;8.80;49.70;;;;;;5039324;28;19928;-84
2023/04/06 08:40:27;;;;;;;;;;;8.80;50.60;;;;;;5037098;28;19924;-84
2023/04/06 08:42:54;;;;;;;;;;;8.90;50.60;;;;;;5035748;28;19920;-83
2023/04/06 08:45:21;;;;;;;;;;;9.00;50.00;;;;;;5045424;28;19952;-83
2023/04/06 08:47:57;;;;;;;;;;;9.10;50.00;;;;;;5039293;28;19914;-82
2023/04/06 08:50:23;;;;;;;;;;;9.40;48.20;;;;;;5039664;28;19959;-83
2023/04/06 08:52:49;;;;;;;;;;;9.40;48.30;;;;;;5039448;28;19920;-83
2023/04/06 08:55:15;;;;;;;;;;;9.50;48.00;;;;;;5035279;28;20072;-83
2023/04/06 08:57:41;;;;;;;;;;;9.60;48.70;;;;;;5039455;28;19932;-83
2023/04/06 09:00:07;;;;;;;;;;;9.70;48.20;;;;;;5042338;28;20000;-85
2023/04/06 09:02:33;;;;;;;;;;;9.80;47.90;;;;;;5033769;28;19910;-84
2023/04/06 09:04:58;;;;;;;;;;;10.20;47.30;;;;;;5038971;28;19912;-84
2023/04/06 09:07:24;;;;;;;;;;;10.30;47.20;;;;;;5038679;28;19913;-85
2023/04/06 09:09:51;;;;;;;;;;;10.50;44.20;;;;;;5033481;28;19917;-84
2023/04/06 09:12:23;;;;;;;;;;;10.70;43.40;;;;;;5043206;28;19923;-85
2023/04/06 09:14:48;;;;;;;;;;;10.80;43.30;;;;;;5040815;28;19980;-84
2023/04/06 09:17:27;;;;;;;;;;;11.00;44.80;;;;;;5033595;28;19913;-85
2023/04/06 09:19:53;;;;;;;;;;;11.10;44.50;;;;;;5042762;28;19936;-85
2023/04/06 09:22:18;;;;;;;;;;;11.00;42.90;;;;;;5042975;28;19954;-84
2023/04/06 09:24:45;;;;;;;;;;;10.80;43.40;;;;;;5039372;28;19914;-85
2023/04/06 09:27:11;;;;;;;;;;;10.80;44.00;;;;;;5043912;28;19928;-84
2023/04/06 09:29:36;;;;;;;;;;;11.20;43.40;;;;;;5042856;28;20338;-85
2023/04/06 09:32:06;;;;;;;;;;;11.30;43.40;;;;;;5044355;28;19915;-83
2023/04/06 09:34:32;;;;;;;;;;;11.40;42.80;;;;;;5038627;28;19916;-83
2023/04/06 09:36:58;;;;;;;;;;;11.70;42.50;;;;;;5056187;28;20071;-84
2023/04/06 09:39:23;;;;;;;;;;;11.80;41.40;;;;;;5042352;28;19916;-85
2023/04/06 09:41:53;;;;;;;;;;;12.00;42.00;;;;;;5031955;28;19913;-85
2023/04/06 09:44:19;;;;;;;;;;;12.10;40.40;;;;;;5051286;28;19910;-84
2023/04/06 09:46:45;;;;;;;;;;;12.20;40.40;;;;;;5034324;28;20305;-84
2023/04/06 09:49:14;;;;;;;;;;;12.30;40.40;;;;;;5032363;28;20015;-83
2023/04/06 09:51:41;;;;;;;;;;;12.30;38.90;;;;;;5031266;28;19937;-84
2023/04/06 09:54:55;;;;;;;;;;;12.40;39.30;;;;;;5035152;28;20004;-84
2023/04/06 09:57:27;;;;;;;;;;;12.50;39.70;;;;;;4979566;28;20044;-83
2023/04/06 09:59:58;;;;;;;;;;;12.50;40.00;;;;;;5041934;28;19927;-83
2023/04/06 10:02:26;;;;;;;;;;;12.30;38.50;;;;;;5018520;28;20478;-83
2023/04/06 10:05:12;;;;;;;;;;;12.30;38.70;;;;;;5033052;28;19920;-82
2023/04/06 10:07:40;;;;;;;;;;;12.20;39.90;;;;;;5015400;28;19964;-83
2023/04/06 10:10:05;;;;;;;;;;;12.10;39.90;;;;;;5021435;28;19917;-83
2023/04/06 10:12:31;;;;;;;;;;;12.10;39.80;;;;;;5026816;28;20005;-85
2023/04/06 10:14:57;;;;;;;;;;;12.10;40.10;;;;;;5030947;28;19917;-83
2023/04/06 10:17:25;;;;;;;;;;;12.20;40.40;;;;;;5032256;28;20239;-85
2023/04/06 10:19:59;;;;;;;;;;;12.30;40.00;;;;;;5019796;28;19914;-82
2023/04/06 10:22:28;;;;;;;;;;;12.30;40.60;;;;;;5025730;28;19944;-83
2023/04/06 10:24:54;;;;;;;;;;;12.40;40.20;;;;;;5021777;28;19940;-83
2023/04/06 10:27:27;;;;;;;;;;;12.40;41.50;;;;;;5032401;28;19909;-83
2023/04/06 10:29:52;;;;;;;;;;;12.60;41.50;;;;;;5033202;28;19966;-83
2023/04/06 10:32:18;;;;;;;;;;;12.60;40.70;;;;;;5030978;28;20298;-82
2023/04/06 10:34:43;;;;;;;;;;;12.50;40.80;;;;;;5034405;28;19939;-83
2023/04/06 10:37:15;;;;;;;;;;;12.50;39.80;;;;;;5031715;28;19913;-83
2023/04/06 10:39:58;;;;;;;;;;;12.60;40.20;;;;;;5048111;28;19935;-83
2023/04/06 10:42:24;;;;;;;;;;;12.70;39.70;;;;;;5039443;28;20046;-83
2023/04/06 10:44:49;;;;;;;;;;;12.70;39.60;;;;;;5027625;28;19967;-82
2023/04/06 10:47:17;;;;;;;;;;;12.80;40.80;;;;;;5013772;28;19909;-82
2023/04/06 10:49:43;;;;;;;;;;;12.90;40.10;;;;;;5013608;28;20368;-82
2023/04/06 10:52:09;;;;;;;;;;;13.10;39.90;;;;;;5030188;28;19924;-81
2023/04/06 10:54:38;;;;;;;;;;;13.20;40.30;;;;;;5031442;28;19917;-82
2023/04/06 10:57:03;;;;;;;;;;;13.20;39.70;;;;;;5024279;28;20371;-82
2023/04/06 10:59:29;;;;;;;;;;;13.30;39.50;;;;;;5024474;28;19958;-82
2023/04/06 11:01:55;;;;;;;;;;;13.50;40.50;;;;;;5028257;28;20508;-82
2023/04/06 11:04:21;;;;;;;;;;;13.60;38.70;;;;;;5032565;28;19964;-81
2023/04/06 11:06:48;;;;;;;;;;;13.60;38.50;;;;;;5020707;28;19912;-82
2023/04/06 11:09:26;;;;;;;;;;;13.40;37.10;;;;;;5027506;28;20006;-82
2023/04/06 11:11:52;;;;;;;;;;;13.30;36.10;;;;;;5025933;28;20268;-82
2023/04/06 11:14:17;;;;;;;;;;;13.40;37.10;;;;;;5031287;28;19964;-81
2023/04/06 11:16:45;;;;;;;;;;;13.60;36.60;;;;;;5024371;28;20302;-81
2023/04/06 11:19:12;;;;;;;;;;;13.60;36.90;;;;;;5046770;28;20047;-82
2023/04/06 11:21:39;;;;;;;;;;;13.60;37.10;;;;;;5040632;28;19988;-81
2023/04/06 11:24:15;;;;;;;;;;;13.70;35.80;;;;;;5038304;28;19916;-81
2023/04/06 11:26:43;;;;;;;;;;;13.70;35.90;;;;;;5034613;28;20043;-82
2023/04/06 11:29:09;;;;;;;;;;;13.70;35.40;;;;;;5039430;28;19913;-82
2023/04/06 11:31:57;;;;;;;;;;;13.70;34.50;;;;;;5034633;28;19909;-81
2023/04/06 11:34:23;;;;;;;;;;;13.60;35.90;;;;;;5029144;28;20394;-84
2023/04/06 11:36:54;;;;;;;;;;;13.70;36.70;;;;;;5030237;28;19909;-83
2023/04/06 11:39:20;;;;;;;;;;;13.80;36.30;;;;;;5032124;28;19917;-83
2023/04/06 11:41:49;;;;;;;;;;;14.00;35.80;;;;;;5026426;28;19967;-84
2023/04/06 11:44:15;;;;;;;;;;;14.00;36.10;;;;;;5030182;28;20387;-83
2023/04/06 11:46:41;;;;;;;;;;;14.10;36.70;;;;;;5024198;28;19919;-82
2023/04/06 11:49:06;;;;;;;;;;;14.10;36.30;;;;;;5031608;28;19923;-83
2023/04/06 11:51:35;;;;;;;;;;;14.10;37.90;;;;;;5034590;28;20371;-83
2023/04/06 11:54:00;;;;;;;;;;;14.10;37.80;;;;;;5028034;28;19926;-83
2023/04/06 11:56:27;;;;;;;;;;;14.10;37.60;;;;;;5023246;28;20440;-85
2023/04/06 11:58:54;;;;;;;;;;;14.30;37.50;;;;;;5022580;28;19921;-82
2023/04/06 12:01:19;;;;;;;;;;;14.20;37.80;;;;;;5035430;28;19916;-82
2023/04/06 12:03:45;;;;;;;;;;;14.40;37.80;;;;;;5034408;28;19909;-80
2023/04/06 12:06:10;;;;;;;;;;;14.50;37.00;;;;;;5038702;28;19969;-80
2023/04/06 12:08:36;;;;;;;;;;;14.60;37.50;;;;;;5039075;28;19917;-80
2023/04/06 12:11:02;;;;;;;;;;;14.50;37.30;;;;;;5052108;28;20287;-83
2023/04/06 12:13:27;;;;;;;;;;;14.40;36.80;;;;;;5039070;28;19914;-86
2023/04/06 12:15:53;;;;;;;;;;;14.50;37.20;;;;;;5035744;28;19928;-84
2023/04/06 12:18:18;;;;;;;;;;;14.40;38.00;;;;;;5021011;28;19924;-82
2023/04/06 12:20:44;;;;;;;;;;;14.30;37.80;;;;;;5038226;28;19924;-84
2023/04/06 12:23:09;;;;;;;;;;;14.40;38.00;;;;;;5027964;28;20022;-84
2023/04/06 12:25:35;;;;;;;;;;;14.30;38.70;;;;;;5034357;28;19921;-84
2023/04/06 12:28:00;;;;;;;;;;;14.30;38.10;;;;;;5031303;28;19916;-83
2023/04/06 12:30:26;;;;;;;;;;;14.40;38.10;;;;;;5040615;28;20086;-85
2023/04/06 12:32:51;;;;;;;;;;;14.50;38.70;;;;;;5036460;28;19913;-82
2023/04/06 12:35:17;;;;;;;;;;;14.60;39.10;;;;;;5028405;28;20059;-82
2023/04/06 12:37:42;;;;;;;;;;;14.70;38.50;;;;;;5025709;28;19917;-82
2023/04/06 12:40:10;;;;;;;;;;;14.70;37.80;;;;;;5024750;28;19917;-85
2023/04/06 12:42:36;;;;;;;;;;;14.70;37.50;;;;;;5019587;28;19916;-86
2023/04/06 12:45:01;;;;;;;;;;;14.40;39.00;;;;;;5030118;28;20353;-83
2023/04/06 12:47:27;;;;;;;;;;;14.50;38.30;;;;;;5036258;28;19921;-86
2023/04/06 12:49:59;;;;;;;;;;;14.50;39.00;;;;;;5029489;28;19909;-91
2023/04/06 12:52:25;;;;;;;;;;;14.50;38.50;;;;;;5029489;28;19913;-86
2023/04/06 12:54:51;;;;;;;;;;;14.60;39.50;;;;;;5031130;28;20011;-87
2023/04/06 12:57:16;;;;;;;;;;;14.60;39.70;;;;;;5030476;28;19914;-84
2023/04/06 12:59:44;;;;;;;;;;;14.60;39.50;;;;;;5041906;28;19921;-86
2023/04/06 13:02:10;;;;;;;;;;;14.70;39.40;;;;;;5041772;28;19909;-87
2023/04/06 13:04:35;;;;;;;;;;;14.70;39.40;;;;;;5045697;28;19913;-87
2023/04/06 13:07:01;;;;;;;;;;;14.80;38.90;;;;;;5052902;28;19920;-84
2023/04/06 13:09:26;;;;;;;;;;;15.00;39.00;;;;;;5032861;28;19929;-87
2023/04/06 13:11:52;;;;;;;;;;;15.10;39.50;;;;;;5027671;28;20353;-87
2023/04/06 13:14:17;;;;;;;;;;;14.80;40.40;;;;;;5028702;28;19913;-86
2023/04/06 13:16:43;;;;;;;;;;;15.00;39.70;;;;;;5035044;28;19919;-86
2023/04/06 13:19:08;;;;;;;;;;;15.00;39.60;;;;;;5033832;28;19971;-87
2023/04/06 13:21:34;;;;;;;;;;;15.00;39.90;;;;;;5034585;28;19913;-85
2023/04/06 13:23:59;;;;;;;;;;;14.80;39.40;;;;;;5036174;28;19917;-86
2023/04/06 13:26:25;;;;;;;;;;;14.70;38.60;;;;;;5035667;28;19913;-87
2023/04/06 13:28:51;;;;;;;;;;;14.60;39.40;;;;;;5041153;28;20371;-85
2023/04/06 13:31:16;;;;;;;;;;;14.60;40.10;;;;;;5037605;28;19960;-86
2023/04/06 13:33:42;;;;;;;;;;;14.60;40.00;;;;;;5035052;28;19917;-86
2023/04/06 13:36:07;;;;;;;;;;;14.50;40.50;;;;;;5036191;28;19928;-86
2023/04/06 13:38:33;;;;;;;;;;;14.40;41.50;;;;;;5028955;28;19914;-87
2023/04/06 13:40:59;;;;;;;;;;;14.30;41.60;;;;;;5030139;28;19909;-87
2023/04/06 13:43:26;;;;;;;;;;;14.40;41.30;;;;;;5035822;28;19987;-86
2023/04/06 13:45:54;;;;;;;;;;;14.30;40.90;;;;;;5034674;28;19913;-87
2023/04/06 13:48:20;;;;;;;;;;;14.20;41.40;;;;;;5030653;28;19920;-87
2023/04/06 13:50:46;;;;;;;;;;;14.20;41.40;;;;;;5030366;28;19913;-87
2023/04/06 13:53:11;;;;;;;;;;;14.10;42.40;;;;;;5035370;28;19913;-88
2023/04/06 13:55:37;;;;;;;;;;;14.10;41.90;;;;;;5034456;28;19977;-86
2023/04/06 13:58:02;;;;;;;;;;;14.00;43.40;;;;;;5033946;28;19992;-85
2023/04/06 14:00:28;;;;;;;;;;;13.80;42.50;;;;;;5041886;28;19913;-85
2023/04/06 14:02:54;;;;;;;;;;;13.90;43.00;;;;;;5031660;28;19913;-87
2023/04/06 14:05:20;;;;;;;;;;;13.80;43.20;;;;;;5047382;28;20410;-85
2023/04/06 14:07:45;;;;;;;;;;;13.80;42.20;;;;;;5033723;28;19955;-86
2023/04/06 14:10:13;;;;;;;;;;;13.60;43.70;;;;;;5032514;28;20008;-86
2023/04/06 14:12:43;;;;;;;;;;;13.60;44.30;;;;;;5026069;28;19957;-86
2023/04/06 14:15:09;;;;;;;;;;;13.60;43.40;;;;;;5033248;28;20389;-84
2023/04/06 14:17:35;;;;;;;;;;;13.60;43.60;;;;;;5041283;28;19913;-85
2023/04/06 14:20:00;;;;;;;;;;;13.60;44.30;;;;;;5021561;28;20461;-86
2023/04/06 14:22:26;;;;;;;;;;;13.60;44.50;;;;;;5033830;28;19975;-87
2023/04/06 14:24:55;;;;;;;;;;;13.60;44.60;;;;;;5037471;28;20008;-87
2023/04/06 14:27:21;;;;;;;;;;;13.60;44.60;;;;;;5029481;28;19913;-87
2023/04/06 14:29:47;;;;;;;;;;;13.40;45.00;;;;;;5032010;28;19980;-87
2023/04/06 14:32:12;;;;;;;;;;;13.50;45.20;;;;;;5032250;28;20331;-87
2023/04/06 14:34:38;;;;;;;;;;;13.50;45.90;;;;;;5023961;28;19947;-88
2023/04/06 14:37:03;;;;;;;;;;;13.40;46.40;;;;;;5029439;28;19952;-88
2023/04/06 14:39:29;;;;;;;;;;;13.30;47.10;;;;;;5040062;28;19897;-86
2023/04/06 14:41:55;;;;;;;;;;;13.30;48.00;;;;;;5040922;28;19924;-86
2023/04/06 14:44:20;;;;;;;;;;;13.50;45.50;;;;;;5037623;28;19913;-86
2023/04/06 14:46:46;;;;;;;;;;;13.50;45.20;;;;;;5034802;28;19928;-87
2023/04/06 14:49:12;;;;;;;;;;;13.50;45.00;;;;;;5033064;28;19995;-86
2023/04/06 14:51:37;;;;;;;;;;;13.40;45.20;;;;;;5033669;28;19973;-87
2023/04/06 14:54:03;;;;;;;;;;;13.30;47.10;;;;;;5042205;28;19913;-86
2023/04/06 14:56:29;;;;;;;;;;;13.10;48.30;;;;;;5026280;28;19914;-88
2023/04/06 14:58:56;;;;;;;;;;;13.00;49.00;;;;;;5031911;28;20135;-85